createdAt,value
2023-01-13T00:00:39.252Z,1001.52
2023-01-13T00:10:46.595Z,1001.62
2023-01-13T00:20:53.884Z,1001.60
2023-01-13T00:31:01.295Z,1001.55
2023-01-13T00:41:08.029Z,1001.47
2023-01-13T00:51:15.281Z,1001.45
2023-01-13T01:01:22.767Z,1001.55
2023-01-13T01:11:29.989Z,1001.60
2023-01-13T01:21:36.496Z,1001.54
2023-01-13T01:31:43.545Z,1001.52
2023-01-13T01:41:50.497Z,1001.47
2023-01-13T01:51:57.548Z,1001.47
2023-01-13T02:02:06.247Z,1001.41
2023-01-13T02:12:13.943Z,1001.35
2023-01-13T02:22:21.944Z,1001.18
2023-01-13T02:32:28.628Z,1001.17
2023-01-13T02:42:35.905Z,1001.08
2023-01-13T02:52:42.780Z,1001.11
2023-01-13T03:02:49.688Z,1001.00
2023-01-13T03:12:56.923Z,1000.83
2023-01-13T03:23:03.520Z,1000.90
2023-01-13T03:33:10.894Z,1000.94
2023-01-13T03:43:17.805Z,1000.87
2023-01-13T03:53:24.571Z,1000.91
2023-01-13T04:03:31.905Z,1000.87
2023-01-13T04:13:38.679Z,1000.75
2023-01-13T04:23:45.761Z,1000.78
2023-01-13T04:33:53.248Z,1000.90
2023-01-13T04:44:00.373Z,1000.91
2023-01-13T04:54:07.898Z,1001.04
2023-01-13T05:04:15.463Z,1001.12
2023-01-13T05:14:22.054Z,1001.23
2023-01-13T05:24:28.939Z,1001.27
2023-01-13T05:34:36.524Z,1001.41
2023-01-13T05:44:43.433Z,1001.43
2023-01-13T05:54:50.582Z,1001.66
2023-01-13T06:04:57.200Z,1001.58
2023-01-13T06:15:03.359Z,1001.52
2023-01-13T06:25:10.683Z,1001.60
2023-01-13T06:35:17.918Z,1001.67
2023-01-13T06:45:24.791Z,1001.44
2023-01-13T06:55:31.369Z,1001.45
2023-01-13T07:05:38.540Z,1001.45
2023-01-13T07:15:45.458Z,1001.28
2023-01-13T07:25:53.092Z,1001.28
2023-01-13T07:35:59.861Z,1001.51
2023-01-13T07:46:07.137Z,1001.58
2023-01-13T07:56:14.161Z,1001.67
2023-01-13T08:06:21.161Z,1001.75
2023-01-13T08:16:28.029Z,1001.86
2023-01-13T08:26:34.939Z,1001.93
2023-01-13T08:36:42.256Z,1002.00
2023-01-13T08:46:49.211Z,1001.89
2023-01-13T08:56:56.237Z,1002.21
2023-01-13T09:07:02.985Z,1001.72
2023-01-13T09:17:10.108Z,1001.96
2023-01-13T09:27:17.464Z,1002.07
2023-01-13T09:37:24.448Z,1002.02
2023-01-13T09:47:31.427Z,1001.80
2023-01-13T09:57:38.655Z,1002.05
2023-01-13T10:07:45.411Z,1002.17
2023-01-13T10:17:52.716Z,1002.13
2023-01-13T10:27:59.451Z,1002.03
2023-01-13T10:38:06.573Z,1002.12
2023-01-13T10:48:13.780Z,1002.14
2023-01-13T10:58:21.099Z,1002.10
2023-01-13T11:08:28.674Z,1002.11
2023-01-13T11:18:35.893Z,1002.10
2023-01-13T11:28:42.675Z,1002.05
2023-01-13T11:38:50.015Z,1002.11
2023-01-13T11:48:56.936Z,1002.06
2023-01-13T11:59:03.932Z,1002.12
2023-01-13T12:09:10.859Z,1002.15
2023-01-13T12:19:17.985Z,1002.19
2023-01-13T12:29:25.389Z,1002.21
2023-01-13T12:39:31.995Z,1002.24
2023-01-13T12:49:39.269Z,1002.29
2023-01-13T12:59:46.052Z,1002.43
2023-01-13T13:09:53.159Z,1002.37
2023-01-13T13:19:59.646Z,1002.62
2023-01-13T13:30:06.355Z,1002.45
2023-01-13T13:40:13.682Z,1002.65
2023-01-13T13:50:20.677Z,1002.71
2023-01-13T14:00:27.591Z,1002.77
2023-01-13T14:10:34.789Z,1002.86
2023-01-13T14:20:42.947Z,1002.96
2023-01-13T14:30:49.776Z,1002.91
2023-01-13T14:40:56.659Z,1002.77
2023-01-13T14:51:03.649Z,1002.95
2023-01-13T15:01:10.783Z,1002.93
2023-01-13T15:11:18.227Z,1002.92
2023-01-13T15:21:25.683Z,1003.07
2023-01-13T15:31:32.645Z,1003.22
2023-01-13T15:41:39.615Z,1003.20
2023-01-13T15:51:46.917Z,1003.19
2023-01-13T16:01:54.914Z,1003.12
2023-01-13T16:12:02.369Z,1003.28
2023-01-13T16:22:09.067Z,1003.31
2023-01-13T16:32:16.227Z,1003.53
2023-01-13T16:42:23.329Z,1003.57
2023-01-13T16:52:31.179Z,1003.70
2023-01-13T17:02:38.226Z,1003.90
2023-01-13T17:12:45.219Z,1004.01
2023-01-13T17:22:58.187Z,1004.16
2023-01-13T17:33:05.723Z,1004.30
2023-01-13T17:43:13.577Z,1004.42
2023-01-13T17:53:20.288Z,1004.49
2023-01-13T18:03:27.794Z,1004.55
2023-01-13T18:13:34.507Z,1004.68
2023-01-13T18:23:41.650Z,1004.64
2023-01-13T18:33:48.834Z,1004.78
2023-01-13T18:43:55.918Z,1004.84
2023-01-13T18:54:02.602Z,1004.98
2023-01-13T19:04:10.031Z,1005.06
2023-01-13T19:14:17.209Z,1005.17
2023-01-13T19:24:24.697Z,1005.25
2023-01-13T19:34:31.690Z,1005.35
2023-01-13T19:44:38.948Z,1005.55
2023-01-13T19:54:46.261Z,1005.59
2023-01-13T20:04:54.054Z,1005.73
2023-01-13T20:15:00.956Z,1005.95
2023-01-13T20:25:08.289Z,1006.06
2023-01-13T20:35:15.379Z,1006.15
2023-01-13T20:45:21.979Z,1006.13
2023-01-13T20:55:29.039Z,1006.25
2023-01-13T21:05:36.727Z,1006.39
2023-01-13T21:15:43.122Z,1006.44
2023-01-13T21:25:50.109Z,1006.43
2023-01-13T21:35:57.385Z,1006.70
2023-01-13T21:46:05.695Z,1006.76
2023-01-13T21:56:12.779Z,1006.79
2023-01-13T22:06:19.920Z,1006.77
2023-01-13T22:16:26.684Z,1006.88
2023-01-13T22:26:33.911Z,1006.90
2023-01-13T22:36:40.981Z,1007.04
2023-01-13T22:46:47.885Z,1007.18
2023-01-13T22:56:55.004Z,1007.31
2023-01-13T23:07:02.121Z,1007.44
2023-01-13T23:17:09.898Z,1007.53
2023-01-13T23:27:17.523Z,1007.49
2023-01-13T23:37:25.187Z,1007.58
2023-01-13T23:47:32.379Z,1007.64
2023-01-13T23:57:39.190Z,1007.66
